createdAt,value
2022-10-08T00:00:55.000Z,281.77
2022-10-08T00:02:22.000Z,281.71
2022-10-08T00:04:28.000Z,281.71
2022-10-08T00:07:19.000Z,281.65
2022-10-08T00:08:46.000Z,281.65
2022-10-08T00:10:52.000Z,281.65
2022-10-08T00:12:18.000Z,281.59
2022-10-08T00:14:24.000Z,281.52
2022-10-08T00:15:51.000Z,281.46
2022-10-08T00:17:57.000Z,281.46
2022-10-08T00:19:24.000Z,281.46
2022-10-08T00:21:30.000Z,281.4
2022-10-08T00:22:56.000Z,281.34
2022-10-08T00:25:02.000Z,281.34
2022-10-08T00:26:29.000Z,281.34
2022-10-08T00:28:35.000Z,281.34
2022-10-08T00:30:02.000Z,281.4
2022-10-08T00:32:08.000Z,281.4
2022-10-08T00:33:34.000Z,281.4
2022-10-08T00:35:40.000Z,281.4
2022-10-08T00:37:07.000Z,281.4
2022-10-08T00:39:13.000Z,281.34
2022-10-08T00:40:39.000Z,281.34
2022-10-08T00:42:45.000Z,281.46
2022-10-08T00:45:37.000Z,281.46
2022-10-08T00:47:04.000Z,281.4
2022-10-08T00:49:10.000Z,281.34
2022-10-08T00:50:37.000Z,281.4
2022-10-08T00:52:43.000Z,281.4
2022-10-08T00:54:10.000Z,281.4
2022-10-08T00:56:16.000Z,281.4
2022-10-08T00:57:43.000Z,281.4
2022-10-08T00:59:49.000Z,281.4
2022-10-08T01:01:15.000Z,281.4
2022-10-08T01:03:21.000Z,281.34
2022-10-08T01:04:48.000Z,281.34
2022-10-08T01:06:54.000Z,281.34
2022-10-08T01:08:21.000Z,281.27
2022-10-08T01:10:27.000Z,281.34
2022-10-08T01:11:53.000Z,281.34
2022-10-08T01:13:59.000Z,281.34
2022-10-08T01:15:26.000Z,281.34
2022-10-08T01:17:32.000Z,281.4
2022-10-08T01:18:58.000Z,281.34
2022-10-08T01:21:05.000Z,281.34
2022-10-08T01:23:56.000Z,281.34
2022-10-08T01:25:22.000Z,281.34
2022-10-08T01:27:28.000Z,281.27
2022-10-08T01:28:55.000Z,281.27
2022-10-08T01:31:01.000Z,281.27
2022-10-08T01:32:27.000Z,281.15
2022-10-08T01:34:33.000Z,281.09
2022-10-08T01:36:00.000Z,281.21
2022-10-08T01:38:06.000Z,281.21
2022-10-08T01:39:32.000Z,281.21
2022-10-08T01:41:39.000Z,281.21
2022-10-08T01:43:05.000Z,281.15
2022-10-08T01:45:11.000Z,281.15
2022-10-08T01:46:38.000Z,281.15
2022-10-08T01:48:44.000Z,281.15
2022-10-08T01:50:10.000Z,281.21
2022-10-08T01:52:16.000Z,281.21
2022-10-08T01:53:43.000Z,281.21
2022-10-08T01:55:49.000Z,281.27
2022-10-08T01:57:15.000Z,281.27
2022-10-08T01:59:22.000Z,281.27
2022-10-08T02:02:13.000Z,281.34
2022-10-08T02:03:40.000Z,281.34
2022-10-08T02:05:46.000Z,281.34
2022-10-08T02:07:12.000Z,281.34
2022-10-08T02:09:18.000Z,281.46
2022-10-08T02:10:45.000Z,281.4
2022-10-08T02:12:51.000Z,281.4
2022-10-08T02:14:17.000Z,281.46
2022-10-08T02:16:23.000Z,281.46
2022-10-08T02:17:50.000Z,281.46
2022-10-08T02:19:56.000Z,281.46
2022-10-08T02:21:23.000Z,281.52
2022-10-08T02:23:29.000Z,281.52
2022-10-08T02:24:55.000Z,281.52
2022-10-08T02:27:01.000Z,281.52
2022-10-08T02:28:28.000Z,281.59
2022-10-08T02:30:34.000Z,281.52
2022-10-08T02:32:01.000Z,281.59
2022-10-08T02:34:07.000Z,281.52
2022-10-08T02:35:33.000Z,281.52
2022-10-08T02:37:40.000Z,281.52
2022-10-08T02:40:31.000Z,281.52
2022-10-08T02:41:57.000Z,281.46
2022-10-08T02:44:03.000Z,281.46
2022-10-08T02:45:30.000Z,281.46
2022-10-08T02:47:36.000Z,281.4
2022-10-08T02:49:02.000Z,281.46
2022-10-08T02:51:08.000Z,281.4
2022-10-08T02:52:35.000Z,281.4
2022-10-08T02:54:41.000Z,281.4
2022-10-08T02:56:07.000Z,281.34
2022-10-08T02:58:13.000Z,281.34
2022-10-08T02:59:40.000Z,281.34
2022-10-08T03:01:46.000Z,281.34
2022-10-08T03:03:13.000Z,281.27
2022-10-08T03:05:19.000Z,281.21
2022-10-08T03:06:45.000Z,281.21
2022-10-08T03:08:52.000Z,281.21
2022-10-08T03:10:18.000Z,281.21
2022-10-08T03:12:24.000Z,281.15
2022-10-08T03:13:51.000Z,281.15
2022-10-08T03:15:57.000Z,281.15
2022-10-08T03:18:48.000Z,281.09
2022-10-08T03:20:14.000Z,281.02
2022-10-08T03:22:21.000Z,280.96
2022-10-08T03:23:47.000Z,281.02
2022-10-08T03:25:53.000Z,280.9
2022-10-08T03:27:20.000Z,280.96
2022-10-08T03:29:26.000Z,280.9
2022-10-08T03:30:52.000Z,280.84
2022-10-08T03:32:58.000Z,280.84
2022-10-08T03:34:25.000Z,280.84
2022-10-08T03:36:31.000Z,280.84
2022-10-08T03:37:57.000Z,280.9
2022-10-08T03:40:04.000Z,280.84
2022-10-08T03:41:30.000Z,280.84
2022-10-08T03:43:36.000Z,280.84
2022-10-08T03:45:03.000Z,280.84
2022-10-08T03:47:09.000Z,280.77
2022-10-08T03:48:35.000Z,280.77
2022-10-08T03:50:42.000Z,280.71
2022-10-08T03:52:08.000Z,280.65
2022-10-08T03:54:14.000Z,280.59
2022-10-08T03:57:06.000Z,280.52
2022-10-08T03:58:32.000Z,280.46
2022-10-08T04:00:38.000Z,280.46
2022-10-08T04:02:05.000Z,280.4
2022-10-08T04:04:11.000Z,280.34
2022-10-08T04:05:38.000Z,280.34
2022-10-08T04:07:44.000Z,280.27
2022-10-08T04:09:10.000Z,280.27
2022-10-08T04:11:16.000Z,280.34
2022-10-08T04:12:43.000Z,280.27
2022-10-08T04:14:49.000Z,280.27
2022-10-08T04:16:16.000Z,280.21
2022-10-08T04:18:22.000Z,280.15
2022-10-08T04:19:49.000Z,280.15
2022-10-08T04:21:55.000Z,280.15
2022-10-08T04:23:22.000Z,280.15
2022-10-08T04:25:28.000Z,280.21
2022-10-08T04:26:54.000Z,280.15
2022-10-08T04:29:00.000Z,280.09
2022-10-08T04:30:27.000Z,280.02
2022-10-08T04:32:33.000Z,280.02
2022-10-08T04:35:24.000Z,280.02
2022-10-08T04:36:51.000Z,280.02
2022-10-08T04:38:57.000Z,280.02
2022-10-08T04:40:23.000Z,280.02
2022-10-08T04:42:29.000Z,280.02
2022-10-08T04:43:56.000Z,280.02
2022-10-08T04:46:02.000Z,280.02
2022-10-08T04:47:29.000Z,280.02
2022-10-08T04:49:35.000Z,279.96
2022-10-08T04:51:01.000Z,279.96
2022-10-08T04:53:14.000Z,279.84
2022-10-08T04:54:40.000Z,279.9
2022-10-08T04:56:46.000Z,279.84
2022-10-08T04:58:13.000Z,279.77
2022-10-08T05:00:19.000Z,279.71
2022-10-08T05:01:45.000Z,279.71
2022-10-08T05:03:51.000Z,279.65
2022-10-08T05:05:18.000Z,279.65
2022-10-08T05:07:24.000Z,279.59
2022-10-08T05:08:51.000Z,279.59
2022-10-08T05:10:57.000Z,279.46
2022-10-08T05:13:48.000Z,279.52
2022-10-08T05:15:15.000Z,279.59
2022-10-08T05:17:21.000Z,279.59
2022-10-08T05:18:47.000Z,279.59
2022-10-08T05:20:53.000Z,279.59
2022-10-08T05:22:20.000Z,279.65
2022-10-08T05:24:26.000Z,279.65
2022-10-08T05:25:52.000Z,279.59
2022-10-08T05:27:58.000Z,279.59
2022-10-08T05:29:25.000Z,279.59
2022-10-08T05:31:31.000Z,279.65
2022-10-08T05:32:58.000Z,279.65
2022-10-08T05:35:04.000Z,279.65
2022-10-08T05:36:30.000Z,279.65
2022-10-08T05:38:37.000Z,279.65
2022-10-08T05:40:03.000Z,279.65
2022-10-08T05:42:09.000Z,279.65
2022-10-08T05:43:36.000Z,279.65
2022-10-08T05:45:42.000Z,279.65
2022-10-08T05:47:08.000Z,279.65
2022-10-08T05:49:15.000Z,279.65
2022-10-08T05:52:05.000Z,279.59
2022-10-08T05:53:32.000Z,279.65
2022-10-08T05:55:38.000Z,279.65
2022-10-08T05:57:05.000Z,279.65
2022-10-08T05:59:11.000Z,279.65
2022-10-08T06:00:37.000Z,279.65
2022-10-08T06:02:43.000Z,279.59
2022-10-08T06:04:10.000Z,279.59
2022-10-08T06:06:16.000Z,279.52
2022-10-08T06:07:43.000Z,279.59
2022-10-08T06:09:49.000Z,279.59
2022-10-08T06:11:15.000Z,279.59
2022-10-08T06:13:22.000Z,279.59
2022-10-08T06:14:48.000Z,279.65
2022-10-08T06:16:54.000Z,279.59
2022-10-08T06:18:21.000Z,279.71
2022-10-08T06:20:27.000Z,279.65
2022-10-08T06:21:56.000Z,279.71
2022-10-08T06:24:02.000Z,279.65
2022-10-08T06:25:29.000Z,279.71
2022-10-08T06:27:35.000Z,279.77
2022-10-08T06:30:26.000Z,279.71
2022-10-08T06:31:52.000Z,279.77
2022-10-08T06:33:59.000Z,279.77
2022-10-08T06:35:25.000Z,279.84
2022-10-08T06:37:31.000Z,279.9
2022-10-08T06:38:58.000Z,279.96
2022-10-08T06:41:04.000Z,279.9
2022-10-08T06:42:30.000Z,280.02
2022-10-08T06:44:36.000Z,280.27
2022-10-08T06:46:03.000Z,280.34
2022-10-08T06:48:09.000Z,280.46
2022-10-08T06:49:36.000Z,280.4
2022-10-08T06:51:42.000Z,280.34
2022-10-08T06:53:08.000Z,280.27
2022-10-08T06:55:14.000Z,280.21
2022-10-08T06:56:41.000Z,280.21
2022-10-08T06:58:47.000Z,280.21
2022-10-08T07:00:13.000Z,280.21
2022-10-08T07:02:20.000Z,280.34
2022-10-08T07:03:46.000Z,280.4
2022-10-08T07:05:52.000Z,280.46
2022-10-08T07:08:44.000Z,280.46
2022-10-08T07:10:10.000Z,280.52
2022-10-08T07:12:21.000Z,280.52
2022-10-08T07:13:48.000Z,280.52
2022-10-08T07:15:54.000Z,280.59
2022-10-08T07:17:20.000Z,280.65
2022-10-08T07:19:26.000Z,280.71
2022-10-08T07:20:53.000Z,280.84
2022-10-08T07:22:59.000Z,280.96
2022-10-08T07:24:26.000Z,281.09
2022-10-08T07:26:32.000Z,281.21
2022-10-08T07:27:59.000Z,281.34
2022-10-08T07:30:05.000Z,281.71
2022-10-08T07:31:31.000Z,281.84
2022-10-08T07:33:38.000Z,282.21
2022-10-08T07:35:04.000Z,282.46
2022-10-08T07:37:10.000Z,282.77
2022-10-08T07:38:37.000Z,282.77
2022-10-08T07:40:43.000Z,282.9
2022-10-08T07:42:09.000Z,283.02
2022-10-08T07:44:16.000Z,283.02
2022-10-08T07:47:07.000Z,283.27
2022-10-08T07:48:33.000Z,283.4
2022-10-08T07:50:40.000Z,283.65
2022-10-08T07:52:06.000Z,283.71
2022-10-08T07:54:12.000Z,283.96
2022-10-08T07:55:39.000Z,283.96
2022-10-08T07:57:45.000Z,284.09
2022-10-08T07:59:11.000Z,284.21
2022-10-08T08:01:17.000Z,284.34
2022-10-08T08:02:44.000Z,284.52
2022-10-08T08:04:50.000Z,284.59
2022-10-08T08:06:17.000Z,284.65
2022-10-08T08:08:23.000Z,284.71
2022-10-08T08:09:49.000Z,284.77
2022-10-08T08:11:55.000Z,284.71
2022-10-08T08:13:22.000Z,284.84
2022-10-08T08:15:28.000Z,284.96
2022-10-08T08:16:55.000Z,285.02
2022-10-08T08:19:01.000Z,285.02
2022-10-08T08:20:27.000Z,285.02
2022-10-08T08:22:34.000Z,285.09
2022-10-08T08:25:25.000Z,285.27
2022-10-08T08:26:51.000Z,285.27
2022-10-08T08:29:01.000Z,285.4
2022-10-08T08:30:28.000Z,285.46
2022-10-08T08:32:34.000Z,285.46
2022-10-08T08:34:01.000Z,285.52
2022-10-08T08:36:07.000Z,285.84
2022-10-08T08:37:33.000Z,285.84
2022-10-08T08:39:39.000Z,285.77
2022-10-08T08:41:06.000Z,285.9
2022-10-08T08:43:17.000Z,285.9
2022-10-08T08:44:44.000Z,285.84
2022-10-08T08:46:50.000Z,285.84
2022-10-08T08:48:16.000Z,285.84
2022-10-08T08:50:22.000Z,285.9
2022-10-08T08:51:49.000Z,285.96
2022-10-08T08:53:55.000Z,286.09
2022-10-08T08:55:21.000Z,286.21
2022-10-08T08:57:27.000Z,286.4
2022-10-08T08:58:54.000Z,286.59
2022-10-08T09:01:00.000Z,286.84
2022-10-08T09:03:51.000Z,286.71
2022-10-08T09:05:18.000Z,286.59
2022-10-08T09:07:24.000Z,286.46
2022-10-08T09:08:51.000Z,286.34
2022-10-08T09:10:57.000Z,286.34
2022-10-08T09:12:23.000Z,286.4
2022-10-08T09:14:29.000Z,286.34
2022-10-08T09:15:56.000Z,286.4
2022-10-08T09:18:02.000Z,286.27
2022-10-08T09:19:28.000Z,286.34
2022-10-08T09:21:34.000Z,286.34
2022-10-08T09:23:01.000Z,286.4
2022-10-08T09:25:07.000Z,286.46
2022-10-08T09:26:34.000Z,286.4
2022-10-08T09:28:40.000Z,286.34
2022-10-08T09:30:06.000Z,286.34
2022-10-08T09:32:12.000Z,286.21
2022-10-08T09:33:39.000Z,286.09
2022-10-08T09:35:45.000Z,286.15
2022-10-08T09:37:11.000Z,286.21
2022-10-08T09:39:17.000Z,286.15
2022-10-08T09:42:09.000Z,286.09
2022-10-08T09:43:35.000Z,286.09
2022-10-08T09:45:41.000Z,286.02
2022-10-08T09:47:08.000Z,285.96
2022-10-08T09:49:14.000Z,285.96
2022-10-08T09:50:41.000Z,286.02
2022-10-08T09:52:47.000Z,286.09
2022-10-08T09:54:14.000Z,286.09
2022-10-08T09:56:20.000Z,286.09
2022-10-08T09:57:47.000Z,286.02
2022-10-08T09:59:53.000Z,286.02
2022-10-08T10:01:19.000Z,286.09
2022-10-08T10:03:25.000Z,285.96
2022-10-08T10:04:52.000Z,285.96
2022-10-08T10:06:58.000Z,285.9
2022-10-08T10:08:25.000Z,285.96
2022-10-08T10:10:31.000Z,286.02
2022-10-08T10:11:57.000Z,286.02
2022-10-08T10:14:03.000Z,285.77
2022-10-08T10:15:30.000Z,285.71
2022-10-08T10:17:36.000Z,285.59
2022-10-08T10:20:27.000Z,285.52
2022-10-08T10:21:54.000Z,285.52
2022-10-08T10:24:00.000Z,285.52
2022-10-08T10:25:26.000Z,285.46
2022-10-08T10:27:33.000Z,285.59
2022-10-08T10:28:59.000Z,285.59
2022-10-08T10:31:05.000Z,285.65
2022-10-08T10:32:32.000Z,285.77
2022-10-08T10:34:38.000Z,285.65
2022-10-08T10:36:04.000Z,285.65
2022-10-08T10:38:10.000Z,285.77
2022-10-08T10:39:37.000Z,285.84
2022-10-08T10:41:43.000Z,285.96
2022-10-08T10:43:09.000Z,285.9
2022-10-08T10:45:16.000Z,285.71
2022-10-08T10:46:42.000Z,285.71
2022-10-08T10:48:48.000Z,285.59
2022-10-08T10:50:15.000Z,285.46
2022-10-08T10:52:21.000Z,285.59
2022-10-08T10:53:47.000Z,285.52
2022-10-08T10:55:53.000Z,285.59
2022-10-08T10:58:45.000Z,285.65
2022-10-08T11:00:11.000Z,285.65
2022-10-08T11:02:18.000Z,285.71
2022-10-08T11:03:44.000Z,285.65
2022-10-08T11:05:50.000Z,285.71
2022-10-08T11:07:17.000Z,285.77
2022-10-08T11:09:23.000Z,285.77
2022-10-08T11:10:49.000Z,285.77
2022-10-08T11:12:55.000Z,285.71
2022-10-08T11:14:22.000Z,285.65
2022-10-08T11:16:28.000Z,285.59
2022-10-08T11:17:55.000Z,285.65
2022-10-08T11:20:01.000Z,285.59
2022-10-08T11:21:27.000Z,285.59
2022-10-08T11:23:33.000Z,285.65
2022-10-08T11:25:00.000Z,285.71
2022-10-08T11:27:06.000Z,285.9
2022-10-08T11:28:32.000Z,285.96
2022-10-08T11:30:39.000Z,285.96
2022-10-08T11:32:05.000Z,285.9
2022-10-08T11:34:11.000Z,285.77
2022-10-08T11:37:03.000Z,285.84
2022-10-08T11:38:29.000Z,285.84
2022-10-08T11:40:35.000Z,285.84
2022-10-08T11:42:02.000Z,285.84
2022-10-08T11:44:08.000Z,285.9
2022-10-08T11:45:35.000Z,285.77
2022-10-08T11:47:41.000Z,285.77
2022-10-08T11:49:07.000Z,285.84
2022-10-08T11:51:13.000Z,285.84
2022-10-08T11:52:40.000Z,285.84
2022-10-08T11:54:46.000Z,285.9
2022-10-08T11:56:19.000Z,285.9
2022-10-08T11:58:25.000Z,285.96
2022-10-08T11:59:52.000Z,286.21
2022-10-08T12:01:58.000Z,286.52
2022-10-08T12:03:25.000Z,286.59
2022-10-08T12:05:31.000Z,286.71
2022-10-08T12:06:58.000Z,286.77
2022-10-08T12:09:04.000Z,286.9
2022-10-08T12:10:31.000Z,286.96
2022-10-08T12:12:37.000Z,286.84
2022-10-08T12:15:28.000Z,286.52
2022-10-08T12:16:54.000Z,286.52
2022-10-08T12:19:01.000Z,286.65
2022-10-08T12:20:27.000Z,286.46
2022-10-08T12:22:33.000Z,286.46
2022-10-08T12:24:00.000Z,286.52
2022-10-08T12:26:06.000Z,286.65
2022-10-08T12:27:32.000Z,286.77
2022-10-08T12:29:38.000Z,286.84
2022-10-08T12:31:05.000Z,286.77
2022-10-08T12:33:11.000Z,286.71
2022-10-08T12:34:37.000Z,286.84
2022-10-08T12:36:43.000Z,286.96
2022-10-08T12:38:10.000Z,287.02
2022-10-08T12:40:16.000Z,287.27
2022-10-08T12:41:42.000Z,287.34
2022-10-08T12:43:49.000Z,287.27
2022-10-08T12:45:15.000Z,287.27
2022-10-08T12:47:21.000Z,287.27
2022-10-08T12:48:48.000Z,287.27
2022-10-08T12:50:54.000Z,287.21
2022-10-08T12:53:45.000Z,287.09
2022-10-08T12:55:12.000Z,287.15
2022-10-08T12:57:18.000Z,287.21
2022-10-08T12:58:44.000Z,287.27
2022-10-08T13:00:51.000Z,287.27
2022-10-08T13:02:17.000Z,287.4
2022-10-08T13:04:23.000Z,287.52
2022-10-08T13:05:50.000Z,287.46
2022-10-08T13:07:56.000Z,287.46
2022-10-08T13:09:22.000Z,287.65
2022-10-08T13:11:29.000Z,287.52
2022-10-08T13:12:55.000Z,287.52
2022-10-08T13:15:01.000Z,287.52
2022-10-08T13:16:28.000Z,287.59
2022-10-08T13:18:34.000Z,287.52
2022-10-08T13:20:00.000Z,287.59
2022-10-08T13:22:06.000Z,287.65
2022-10-08T13:23:33.000Z,287.77
2022-10-08T13:25:39.000Z,287.59
2022-10-08T13:27:05.000Z,287.65
2022-10-08T13:29:12.000Z,287.71
2022-10-08T13:32:02.000Z,287.71
2022-10-08T13:33:29.000Z,287.84
2022-10-08T13:35:35.000Z,287.77
2022-10-08T13:37:01.000Z,287.77
2022-10-08T13:39:07.000Z,287.84
2022-10-08T13:40:34.000Z,287.71
2022-10-08T13:42:40.000Z,287.84
2022-10-08T13:44:07.000Z,287.96
2022-10-08T13:46:13.000Z,287.9
2022-10-08T13:47:39.000Z,288.02
2022-10-08T13:49:45.000Z,288.09
2022-10-08T13:51:12.000Z,288.02
2022-10-08T13:53:18.000Z,287.71
2022-10-08T13:54:45.000Z,287.52
2022-10-08T13:56:51.000Z,287.34
2022-10-08T13:58:17.000Z,287.34
2022-10-08T14:00:23.000Z,287.21
2022-10-08T14:01:50.000Z,287.15
2022-10-08T14:03:56.000Z,287.09
2022-10-08T14:05:23.000Z,287.27
2022-10-08T14:07:29.000Z,287.65
2022-10-08T14:10:20.000Z,287.77
2022-10-08T14:11:46.000Z,287.9
2022-10-08T14:13:52.000Z,287.9
2022-10-08T14:15:19.000Z,287.96
2022-10-08T14:17:25.000Z,287.9
2022-10-08T14:18:51.000Z,287.9
2022-10-08T14:21:03.000Z,287.9
2022-10-08T14:22:29.000Z,287.84
2022-10-08T14:24:36.000Z,287.84
2022-10-08T14:26:02.000Z,287.9
2022-10-08T14:28:08.000Z,287.71
2022-10-08T14:29:35.000Z,287.65
2022-10-08T14:31:41.000Z,287.71
2022-10-08T14:33:08.000Z,287.65
2022-10-08T14:35:15.000Z,287.59
2022-10-08T14:36:42.000Z,287.59
2022-10-08T14:38:48.000Z,287.65
2022-10-08T14:40:15.000Z,287.65
2022-10-08T14:42:21.000Z,287.71
2022-10-08T14:43:47.000Z,287.65
2022-10-08T14:45:53.000Z,287.65
2022-10-08T14:48:45.000Z,287.65
2022-10-08T14:50:11.000Z,287.65
2022-10-08T14:52:17.000Z,287.59
2022-10-08T14:53:44.000Z,287.59
2022-10-08T14:55:50.000Z,287.59
2022-10-08T14:57:36.000Z,287.59
2022-10-08T14:59:42.000Z,287.52
2022-10-08T15:01:09.000Z,287.4
2022-10-08T15:03:15.000Z,287.4
2022-10-08T15:04:41.000Z,287.4
2022-10-08T15:06:48.000Z,287.4
2022-10-08T15:08:14.000Z,287.4
2022-10-08T15:10:20.000Z,287.4
2022-10-08T15:11:47.000Z,287.46
2022-10-08T15:13:53.000Z,287.46
2022-10-08T15:15:19.000Z,287.4
2022-10-08T15:17:25.000Z,287.34
2022-10-08T15:18:52.000Z,287.34
2022-10-08T15:20:58.000Z,287.21
2022-10-08T15:22:25.000Z,287.21
2022-10-08T15:24:31.000Z,287.21
2022-10-08T15:27:22.000Z,287.09
2022-10-08T15:28:48.000Z,287.02
2022-10-08T15:30:54.000Z,286.9
2022-10-08T15:32:21.000Z,286.84
2022-10-08T15:34:32.000Z,286.84
2022-10-08T15:35:58.000Z,286.77
2022-10-08T15:38:04.000Z,286.71
2022-10-08T15:39:31.000Z,286.65
2022-10-08T15:41:40.000Z,286.59
2022-10-08T15:43:06.000Z,286.52
2022-10-08T15:45:12.000Z,286.46
2022-10-08T15:46:39.000Z,286.4
2022-10-08T15:48:45.000Z,286.4
2022-10-08T15:50:12.000Z,286.34
2022-10-08T15:52:18.000Z,286.34
2022-10-08T15:53:44.000Z,286.27
2022-10-08T15:55:50.000Z,286.21
2022-10-08T15:57:17.000Z,286.21
2022-10-08T15:59:23.000Z,286.09
2022-10-08T16:00:49.000Z,286.02
2022-10-08T16:02:56.000Z,285.96
2022-10-08T16:05:47.000Z,285.96
2022-10-08T16:07:13.000Z,285.9
2022-10-08T16:09:20.000Z,285.84
2022-10-08T16:10:46.000Z,285.77
2022-10-08T16:12:52.000Z,285.65
2022-10-08T16:14:19.000Z,285.59
2022-10-08T16:16:25.000Z,285.52
2022-10-08T16:17:51.000Z,285.46
2022-10-08T16:19:57.000Z,285.46
2022-10-08T16:21:24.000Z,285.4
2022-10-08T16:23:30.000Z,285.27
2022-10-08T16:24:57.000Z,285.21
2022-10-08T16:27:03.000Z,285.09
2022-10-08T16:28:29.000Z,285.09
2022-10-08T16:30:35.000Z,284.96
2022-10-08T16:32:02.000Z,284.96
2022-10-08T16:34:08.000Z,284.84
2022-10-08T16:35:35.000Z,284.84
2022-10-08T16:37:41.000Z,284.77
2022-10-08T16:39:07.000Z,284.71
2022-10-08T16:41:13.000Z,284.65
2022-10-08T16:44:05.000Z,284.71
2022-10-08T16:45:37.000Z,284.65
2022-10-08T16:47:43.000Z,284.59
2022-10-08T16:49:09.000Z,284.46
2022-10-08T16:51:15.000Z,284.4
2022-10-08T16:52:42.000Z,284.34
2022-10-08T16:54:48.000Z,284.21
2022-10-08T16:56:19.000Z,284.15
2022-10-08T16:58:25.000Z,284.02
2022-10-08T16:59:51.000Z,284.02
2022-10-08T17:01:57.000Z,283.96
2022-10-08T17:03:24.000Z,283.84
2022-10-08T17:05:30.000Z,283.9
2022-10-08T17:06:57.000Z,283.84
2022-10-08T17:09:03.000Z,283.71
2022-10-08T17:10:30.000Z,283.71
2022-10-08T17:12:36.000Z,283.71
2022-10-08T17:14:02.000Z,283.65
2022-10-08T17:16:08.000Z,283.65
2022-10-08T17:17:35.000Z,283.52
2022-10-08T17:19:41.000Z,283.4
2022-10-08T17:22:32.000Z,283.21
2022-10-08T17:23:59.000Z,283.27
2022-10-08T17:26:05.000Z,283.15
2022-10-08T17:27:31.000Z,283.15
2022-10-08T17:29:37.000Z,282.96
2022-10-08T17:31:04.000Z,282.9
2022-10-08T17:33:10.000Z,282.9
2022-10-08T17:34:36.000Z,282.9
2022-10-08T17:36:43.000Z,282.84
2022-10-08T17:38:09.000Z,282.9
2022-10-08T17:40:15.000Z,282.96
2022-10-08T17:41:42.000Z,282.9
2022-10-08T17:43:48.000Z,282.84
2022-10-08T17:45:14.000Z,282.71
2022-10-08T17:47:20.000Z,282.65
2022-10-08T17:48:53.000Z,282.59
2022-10-08T17:50:59.000Z,282.59
2022-10-08T17:52:26.000Z,282.65
2022-10-08T17:54:32.000Z,282.52
2022-10-08T17:55:58.000Z,282.52
2022-10-08T17:58:05.000Z,282.21
2022-10-08T18:00:56.000Z,282.21
2022-10-08T18:02:22.000Z,282.15
2022-10-08T18:04:28.000Z,281.9
2022-10-08T18:05:55.000Z,281.9
2022-10-08T18:08:01.000Z,281.65
2022-10-08T18:09:27.000Z,281.59
2022-10-08T18:11:33.000Z,281.34
2022-10-08T18:13:00.000Z,281.4
2022-10-08T18:15:06.000Z,281.4
2022-10-08T18:16:33.000Z,281.34
2022-10-08T18:18:39.000Z,281.4
2022-10-08T18:20:05.000Z,281.4
2022-10-08T18:22:11.000Z,281.4
2022-10-08T18:23:38.000Z,281.4
2022-10-08T18:25:44.000Z,281.27
2022-10-08T18:27:16.000Z,281.21
2022-10-08T18:29:22.000Z,281.02
2022-10-08T18:30:48.000Z,280.96
2022-10-08T18:32:54.000Z,280.84
2022-10-08T18:34:21.000Z,280.84
2022-10-08T18:36:27.000Z,280.77
2022-10-08T18:39:18.000Z,280.65
2022-10-08T18:40:52.000Z,280.71
2022-10-08T18:44:31.000Z,280.52
2022-10-08T18:45:26.000Z,280.46
2022-10-08T18:46:53.000Z,280.46
2022-10-08T18:48:59.000Z,280.4
2022-10-08T18:50:25.000Z,280.4
2022-10-08T18:52:31.000Z,280.34
2022-10-08T18:53:58.000Z,280.4
2022-10-08T18:56:04.000Z,280.46
2022-10-08T18:57:31.000Z,280.46
2022-10-08T18:59:37.000Z,280.4
2022-10-08T19:01:03.000Z,280.21
2022-10-08T19:03:09.000Z,280.21
2022-10-08T19:04:36.000Z,280.15
2022-10-08T19:06:42.000Z,280.02
2022-10-08T19:08:09.000Z,279.96
2022-10-08T19:10:15.000Z,279.9
2022-10-08T19:11:41.000Z,279.9
2022-10-08T19:13:49.000Z,279.9
2022-10-08T19:15:15.000Z,279.84
2022-10-08T19:17:22.000Z,279.77
2022-10-08T19:20:07.000Z,279.71
2022-10-08T19:21:33.000Z,279.71
2022-10-08T19:23:40.000Z,279.77
2022-10-08T19:25:06.000Z,279.77
2022-10-08T19:27:12.000Z,279.71
2022-10-08T19:28:39.000Z,279.65
2022-10-08T19:30:45.000Z,279.59
2022-10-08T19:32:12.000Z,279.52
2022-10-08T19:34:18.000Z,279.52
2022-10-08T19:35:44.000Z,279.46
2022-10-08T19:37:50.000Z,279.4
2022-10-08T19:39:17.000Z,279.46
2022-10-08T19:41:23.000Z,279.4
2022-10-08T19:42:49.000Z,279.34
2022-10-08T19:44:56.000Z,279.4
2022-10-08T19:46:22.000Z,279.34
2022-10-08T19:48:28.000Z,279.4
2022-10-08T19:49:55.000Z,279.4
2022-10-08T19:52:01.000Z,279.4
2022-10-08T19:53:28.000Z,279.34
2022-10-08T19:55:34.000Z,279.34
2022-10-08T19:58:25.000Z,279.27
2022-10-08T19:59:52.000Z,279.21
2022-10-08T20:01:58.000Z,279.27
2022-10-08T20:03:24.000Z,279.21
2022-10-08T20:05:31.000Z,279.21
2022-10-08T20:06:57.000Z,279.15
2022-10-08T20:09:03.000Z,279.15
2022-10-08T20:10:30.000Z,279.15
2022-10-08T20:12:36.000Z,279.09
2022-10-08T20:14:02.000Z,279.09
2022-10-08T20:16:08.000Z,279.15
2022-10-08T20:17:35.000Z,279.15
2022-10-08T20:19:41.000Z,279.21
2022-10-08T20:21:08.000Z,279.21
2022-10-08T20:23:14.000Z,279.21
2022-10-08T20:24:40.000Z,279.21
2022-10-08T20:26:46.000Z,279.09
2022-10-08T20:28:13.000Z,279.09
2022-10-08T20:30:20.000Z,278.96
2022-10-08T20:31:46.000Z,278.9
2022-10-08T20:33:52.000Z,278.84
2022-10-08T20:36:44.000Z,278.71
2022-10-08T20:38:10.000Z,278.65
2022-10-08T20:40:16.000Z,278.71
2022-10-08T20:41:43.000Z,278.71
2022-10-08T20:43:49.000Z,278.65
2022-10-08T20:45:15.000Z,278.59
2022-10-08T20:47:21.000Z,278.59
2022-10-08T20:48:48.000Z,278.59
2022-10-08T20:50:54.000Z,278.59
2022-10-08T20:52:20.000Z,278.65
2022-10-08T20:54:27.000Z,278.52
2022-10-08T20:55:53.000Z,278.59
2022-10-08T20:57:59.000Z,278.46
2022-10-08T20:59:26.000Z,278.4
2022-10-08T21:01:32.000Z,278.34
2022-10-08T21:02:58.000Z,278.27
2022-10-08T21:05:04.000Z,278.21
2022-10-08T21:06:31.000Z,278.34
2022-10-08T21:08:37.000Z,278.27
2022-10-08T21:10:03.000Z,278.21
2022-10-08T21:12:10.000Z,278.15
2022-10-08T21:15:01.000Z,278.09
2022-10-08T21:16:27.000Z,278.09
2022-10-08T21:18:34.000Z,278.02
2022-10-08T21:20:00.000Z,277.96
2022-10-08T21:22:06.000Z,277.9
2022-10-08T21:23:33.000Z,277.96
2022-10-08T21:25:39.000Z,277.84
2022-10-08T21:27:05.000Z,277.9
2022-10-08T21:29:11.000Z,277.77
2022-10-08T21:30:38.000Z,277.77
2022-10-08T21:32:44.000Z,277.9
2022-10-08T21:34:11.000Z,277.77
2022-10-08T21:36:17.000Z,277.9
2022-10-08T21:37:44.000Z,277.9
2022-10-08T21:39:50.000Z,277.77
2022-10-08T21:41:16.000Z,277.84
2022-10-08T21:43:23.000Z,277.84
2022-10-08T21:44:49.000Z,277.77
2022-10-08T21:46:55.000Z,277.77
2022-10-08T21:48:22.000Z,277.77
2022-10-08T21:50:28.000Z,277.71
2022-10-08T21:53:25.000Z,277.65
2022-10-08T21:54:51.000Z,277.65
2022-10-08T21:56:57.000Z,277.59
2022-10-08T21:58:24.000Z,277.59
2022-10-08T22:00:30.000Z,277.65
2022-10-08T22:01:56.000Z,277.71
2022-10-08T22:04:03.000Z,277.71
2022-10-08T22:05:29.000Z,277.59
2022-10-08T22:07:35.000Z,277.59
2022-10-08T22:09:02.000Z,277.59
2022-10-08T22:11:08.000Z,277.46
2022-10-08T22:12:35.000Z,277.52
2022-10-08T22:14:41.000Z,277.52
2022-10-08T22:16:07.000Z,277.59
2022-10-08T22:18:13.000Z,277.71
2022-10-08T22:19:40.000Z,277.65
2022-10-08T22:21:46.000Z,277.65
2022-10-08T22:23:13.000Z,277.71
2022-10-08T22:25:19.000Z,277.59
2022-10-08T22:26:45.000Z,277.52
2022-10-08T22:28:51.000Z,277.59
2022-10-08T22:31:42.000Z,277.46
2022-10-08T22:33:09.000Z,277.46
2022-10-08T22:35:15.000Z,277.46
2022-10-08T22:36:41.000Z,277.4
2022-10-08T22:38:48.000Z,277.27
2022-10-08T22:40:14.000Z,277.21
2022-10-08T22:42:20.000Z,277.15
2022-10-08T22:43:47.000Z,277.15
2022-10-08T22:45:53.000Z,277.15
2022-10-08T22:47:19.000Z,277.15
2022-10-08T22:49:25.000Z,277.15
2022-10-08T22:50:52.000Z,277.09
2022-10-08T22:52:58.000Z,277.02